sensor_id;sensor_type;location;lat;lon;timestamp;P1;durP1;ratioP1;P2;durP2;ratioP2
51995;SDS011;38010;53.264;6.592;2023-02-27T00:01:05;0.80;;;0.80;;
51995;SDS011;38010;53.264;6.592;2023-02-27T00:03:31;1.27;;;0.80;;
51995;SDS011;38010;53.264;6.592;2023-02-27T00:05:57;0.90;;;0.80;;
51995;SDS011;38010;53.264;6.592;2023-02-27T00:08:23;1.42;;;0.90;;
51995;SDS011;38010;53.264;6.592;2023-02-27T00:10:48;1.10;;;0.80;;
51995;SDS011;38010;53.264;6.592;2023-02-27T00:13:14;1.42;;;0.93;;
51995;SDS011;38010;53.264;6.592;2023-02-27T00:15:40;0.95;;;0.85;;
51995;SDS011;38010;53.264;6.592;2023-02-27T00:18:08;0.80;;;0.80;;
51995;SDS011;38010;53.264;6.592;2023-02-27T00:20:34;1.23;;;0.90;;
51995;SDS011;38010;53.264;6.592;2023-02-27T00:23:05;1.13;;;0.80;;
51995;SDS011;38010;53.264;6.592;2023-02-27T00:25:32;1.05;;;0.95;;
51995;SDS011;38010;53.264;6.592;2023-02-27T00:27:59;0.80;;;0.80;;
51995;SDS011;38010;53.264;6.592;2023-02-27T00:30:25;1.38;;;0.90;;
51995;SDS011;38010;53.264;6.592;2023-02-27T00:32:52;1.05;;;0.80;;
51995;SDS011;38010;53.264;6.592;2023-02-27T00:35:18;0.98;;;0.80;;
51995;SDS011;38010;53.264;6.592;2023-02-27T00:37:44;1.35;;;1.10;;
51995;SDS011;38010;53.264;6.592;2023-02-27T00:40:10;1.33;;;0.85;;
51995;SDS011;38010;53.264;6.592;2023-02-27T00:42:36;1.48;;;0.80;;
51995;SDS011;38010;53.264;6.592;2023-02-27T00:45:02;1.25;;;1.02;;
51995;SDS011;38010;53.264;6.592;2023-02-27T00:47:29;1.15;;;0.80;;
51995;SDS011;38010;53.264;6.592;2023-02-27T00:49:55;1.60;;;0.80;;
51995;SDS011;38010;53.264;6.592;2023-02-27T00:52:20;1.38;;;0.98;;
51995;SDS011;38010;53.264;6.592;2023-02-27T00:54:46;1.27;;;0.80;;
51995;SDS011;38010;53.264;6.592;2023-02-27T00:57:12;0.60;;;0.60;;
51995;SDS011;38010;53.264;6.592;2023-02-27T00:59:38;1.52;;;1.20;;
51995;SDS011;38010;53.264;6.592;2023-02-27T01:02:04;1.10;;;0.80;;
51995;SDS011;38010;53.264;6.592;2023-02-27T01:04:29;1.15;;;0.85;;
51995;SDS011;38010;53.264;6.592;2023-02-27T01:06:55;1.35;;;0.80;;
51995;SDS011;38010;53.264;6.592;2023-02-27T01:09:21;1.58;;;0.80;;
51995;SDS011;38010;53.264;6.592;2023-02-27T01:11:47;0.73;;;0.70;;
51995;SDS011;38010;53.264;6.592;2023-02-27T01:14:13;0.60;;;0.60;;
51995;SDS011;38010;53.264;6.592;2023-02-27T01:16:39;1.05;;;0.80;;
51995;SDS011;38010;53.264;6.592;2023-02-27T01:19:04;0.93;;;0.60;;
51995;SDS011;38010;53.264;6.592;2023-02-27T01:21:30;1.13;;;0.93;;
51995;SDS011;38010;53.264;6.592;2023-02-27T01:23:56;0.80;;;0.70;;
51995;SDS011;38010;53.264;6.592;2023-02-27T01:26:21;0.95;;;0.70;;
51995;SDS011;38010;53.264;6.592;2023-02-27T01:28:47;0.93;;;0.75;;
51995;SDS011;38010;53.264;6.592;2023-02-27T01:31:13;0.75;;;0.70;;
51995;SDS011;38010;53.264;6.592;2023-02-27T01:33:39;0.80;;;0.80;;
51995;SDS011;38010;53.264;6.592;2023-02-27T01:36:04;1.00;;;0.65;;
51995;SDS011;38010;53.264;6.592;2023-02-27T01:38:30;0.60;;;0.60;;
51995;SDS011;38010;53.264;6.592;2023-02-27T01:40:56;1.13;;;0.60;;
51995;SDS011;38010;53.264;6.592;2023-02-27T01:43:22;1.00;;;0.80;;
51995;SDS011;38010;53.264;6.592;2023-02-27T01:45:48;1.00;;;0.75;;
51995;SDS011;38010;53.264;6.592;2023-02-27T01:50:53;1.40;;;0.80;;
51995;SDS011;38010;53.264;6.592;2023-02-27T01:53:24;0.60;;;0.60;;
51995;SDS011;38010;53.264;6.592;2023-02-27T01:56:07;1.13;;;0.73;;
51995;SDS011;38010;53.264;6.592;2023-02-27T01:58:36;1.00;;;0.90;;
51995;SDS011;38010;53.264;6.592;2023-02-27T02:01:03;1.33;;;0.57;;
51995;SDS011;38010;53.264;6.592;2023-02-27T02:03:32;0.70;;;0.60;;
51995;SDS011;38010;53.264;6.592;2023-02-27T02:06:02;1.05;;;0.65;;
51995;SDS011;38010;53.264;6.592;2023-02-27T02:08:32;0.50;;;0.50;;
51995;SDS011;38010;53.264;6.592;2023-02-27T02:11:00;0.68;;;0.65;;
51995;SDS011;38010;53.264;6.592;2023-02-27T02:13:29;0.50;;;0.50;;
51995;SDS011;38010;53.264;6.592;2023-02-27T02:24:22;0.50;;;0.50;;
51995;SDS011;38010;53.264;6.592;2023-02-27T02:26:55;0.60;;;0.60;;
51995;SDS011;38010;53.264;6.592;2023-02-27T02:34:52;0.60;;;0.60;;
51995;SDS011;38010;53.264;6.592;2023-02-27T02:40:29;0.88;;;0.57;;
51995;SDS011;38010;53.264;6.592;2023-02-27T02:45:47;0.93;;;0.75;;
51995;SDS011;38010;53.264;6.592;2023-02-27T02:59:40;1.25;;;0.60;;
51995;SDS011;38010;53.264;6.592;2023-02-27T03:02:23;0.50;;;0.50;;
51995;SDS011;38010;53.264;6.592;2023-02-27T03:04:57;0.55;;;0.50;;
51995;SDS011;38010;53.264;6.592;2023-02-27T03:07:36;0.68;;;0.50;;
51995;SDS011;38010;53.264;6.592;2023-02-27T03:10:20;2.13;;;0.57;;
51995;SDS011;38010;53.264;6.592;2023-02-27T03:12:54;0.50;;;0.50;;
51995;SDS011;38010;53.264;6.592;2023-02-27T03:15:29;0.60;;;0.60;;
51995;SDS011;38010;53.264;6.592;2023-02-27T03:18:21;0.73;;;0.60;;
51995;SDS011;38010;53.264;6.592;2023-02-27T03:20:58;0.47;;;0.40;;
51995;SDS011;38010;53.264;6.592;2023-02-27T03:24:01;0.80;;;0.50;;
51995;SDS011;38010;53.264;6.592;2023-02-27T03:26:23;0.40;;;0.40;;
51995;SDS011;38010;53.264;6.592;2023-02-27T03:28:59;0.70;;;0.70;;
51995;SDS011;38010;53.264;6.592;2023-02-27T03:31:30;0.93;;;0.60;;
51995;SDS011;38010;53.264;6.592;2023-02-27T03:34:16;0.52;;;0.50;;
51995;SDS011;38010;53.264;6.592;2023-02-27T03:36:54;0.70;;;0.50;;
51995;SDS011;38010;53.264;6.592;2023-02-27T03:41:56;0.47;;;0.47;;
51995;SDS011;38010;53.264;6.592;2023-02-27T03:44:35;0.93;;;0.50;;
51995;SDS011;38010;53.264;6.592;2023-02-27T03:47:12;0.50;;;0.50;;
51995;SDS011;38010;53.264;6.592;2023-02-27T03:49:38;0.45;;;0.40;;
51995;SDS011;38010;53.264;6.592;2023-02-27T03:52:04;0.50;;;0.43;;
51995;SDS011;38010;53.264;6.592;2023-02-27T03:54:34;0.40;;;0.40;;
51995;SDS011;38010;53.264;6.592;2023-02-27T03:57:03;0.73;;;0.50;;
51995;SDS011;38010;53.264;6.592;2023-02-27T03:59:30;0.55;;;0.50;;
51995;SDS011;38010;53.264;6.592;2023-02-27T04:01:58;0.40;;;0.40;;
51995;SDS011;38010;53.264;6.592;2023-02-27T04:04:26;0.40;;;0.40;;
51995;SDS011;38010;53.264;6.592;2023-02-27T04:07:09;0.45;;;0.38;;
51995;SDS011;38010;53.264;6.592;2023-02-27T04:09:49;1.10;;;0.40;;
51995;SDS011;38010;53.264;6.592;2023-02-27T04:18:13;0.40;;;0.40;;
51995;SDS011;38010;53.264;6.592;2023-02-27T04:21:09;0.60;;;0.50;;
51995;SDS011;38010;53.264;6.592;2023-02-27T04:26:31;0.40;;;0.40;;
51995;SDS011;38010;53.264;6.592;2023-02-27T04:31:42;0.88;;;0.52;;
51995;SDS011;38010;53.264;6.592;2023-02-27T04:34:30;0.45;;;0.45;;
51995;SDS011;38010;53.264;6.592;2023-02-27T04:37:16;0.45;;;0.40;;
51995;SDS011;38010;53.264;6.592;2023-02-27T04:39:57;0.55;;;0.50;;
51995;SDS011;38010;53.264;6.592;2023-02-27T04:42:29;0.30;;;0.30;;
51995;SDS011;38010;53.264;6.592;2023-02-27T04:45:00;0.68;;;0.40;;
51995;SDS011;38010;53.264;6.592;2023-02-27T04:47:30;0.40;;;0.40;;
51995;SDS011;38010;53.264;6.592;2023-02-27T04:50:06;0.70;;;0.40;;
51995;SDS011;38010;53.264;6.592;2023-02-27T04:52:38;1.17;;;0.40;;
51995;SDS011;38010;53.264;6.592;2023-02-27T04:55:12;0.40;;;0.40;;
51995;SDS011;38010;53.264;6.592;2023-02-27T04:57:47;0.35;;;0.35;;
51995;SDS011;38010;53.264;6.592;2023-02-27T05:00:17;0.40;;;0.40;;
51995;SDS011;38010;53.264;6.592;2023-02-27T05:02:53;0.40;;;0.40;;
51995;SDS011;38010;53.264;6.592;2023-02-27T05:05:24;0.88;;;0.50;;
51995;SDS011;38010;53.264;6.592;2023-02-27T05:13:43;0.43;;;0.40;;
51995;SDS011;38010;53.264;6.592;2023-02-27T05:16:20;0.38;;;0.38;;
51995;SDS011;38010;53.264;6.592;2023-02-27T05:18:51;0.40;;;0.40;;
51995;SDS011;38010;53.264;6.592;2023-02-27T05:21:25;0.55;;;0.40;;
51995;SDS011;38010;53.264;6.592;2023-02-27T05:29:35;0.40;;;0.40;;
51995;SDS011;38010;53.264;6.592;2023-02-27T05:32:25;0.40;;;0.40;;
51995;SDS011;38010;53.264;6.592;2023-02-27T05:37:28;0.45;;;0.45;;
51995;SDS011;38010;53.264;6.592;2023-02-27T05:39:58;0.30;;;0.30;;
51995;SDS011;38010;53.264;6.592;2023-02-27T05:42:33;1.05;;;0.50;;
51995;SDS011;38010;53.264;6.592;2023-02-27T05:45:08;0.40;;;0.40;;
51995;SDS011;38010;53.264;6.592;2023-02-27T05:47:38;0.55;;;0.43;;
51995;SDS011;38010;53.264;6.592;2023-02-27T05:50:14;0.35;;;0.35;;
51995;SDS011;38010;53.264;6.592;2023-02-27T05:52:43;0.40;;;0.40;;
51995;SDS011;38010;53.264;6.592;2023-02-27T06:00:46;0.40;;;0.40;;
51995;SDS011;38010;53.264;6.592;2023-02-27T06:03:24;0.43;;;0.40;;
51995;SDS011;38010;53.264;6.592;2023-02-27T06:05:52;0.30;;;0.30;;
51995;SDS011;38010;53.264;6.592;2023-02-27T06:08:19;0.40;;;0.40;;
51995;SDS011;38010;53.264;6.592;2023-02-27T06:10:46;0.40;;;0.40;;
51995;SDS011;38010;53.264;6.592;2023-02-27T06:13:13;0.43;;;0.43;;
51995;SDS011;38010;53.264;6.592;2023-02-27T06:15:41;0.40;;;0.40;;
51995;SDS011;38010;53.264;6.592;2023-02-27T06:18:10;0.40;;;0.40;;
51995;SDS011;38010;53.264;6.592;2023-02-27T06:20:37;0.32;;;0.30;;
51995;SDS011;38010;53.264;6.592;2023-02-27T06:23:03;4.07;;;0.50;;
51995;SDS011;38010;53.264;6.592;2023-02-27T06:25:29;0.40;;;0.40;;
51995;SDS011;38010;53.264;6.592;2023-02-27T06:27:55;0.40;;;0.40;;
51995;SDS011;38010;53.264;6.592;2023-02-27T06:30:20;0.38;;;0.38;;
51995;SDS011;38010;53.264;6.592;2023-02-27T06:32:46;0.65;;;0.50;;
51995;SDS011;38010;53.264;6.592;2023-02-27T06:35:12;0.40;;;0.40;;
51995;SDS011;38010;53.264;6.592;2023-02-27T06:37:37;0.40;;;0.40;;
51995;SDS011;38010;53.264;6.592;2023-02-27T06:40:04;0.30;;;0.30;;
51995;SDS011;38010;53.264;6.592;2023-02-27T06:42:33;0.30;;;0.30;;
51995;SDS011;38010;53.264;6.592;2023-02-27T06:44:59;0.30;;;0.30;;
51995;SDS011;38010;53.264;6.592;2023-02-27T06:47:24;0.63;;;0.60;;
51995;SDS011;38010;53.264;6.592;2023-02-27T06:49:50;0.43;;;0.32;;
51995;SDS011;38010;53.264;6.592;2023-02-27T06:52:16;0.43;;;0.40;;
51995;SDS011;38010;53.264;6.592;2023-02-27T06:54:41;0.30;;;0.30;;
51995;SDS011;38010;53.264;6.592;2023-02-27T06:57:07;0.50;;;0.40;;
51995;SDS011;38010;53.264;6.592;2023-02-27T06:59:33;0.40;;;0.30;;
51995;SDS011;38010;53.264;6.592;2023-02-27T07:01:58;0.30;;;0.30;;
51995;SDS011;38010;53.264;6.592;2023-02-27T07:04:24;0.57;;;0.35;;
51995;SDS011;38010;53.264;6.592;2023-02-27T07:06:50;0.77;;;0.50;;
51995;SDS011;38010;53.264;6.592;2023-02-27T07:09:17;0.75;;;0.40;;
51995;SDS011;38010;53.264;6.592;2023-02-27T07:11:42;1.95;;;0.47;;
51995;SDS011;38010;53.264;6.592;2023-02-27T07:14:08;0.35;;;0.35;;
51995;SDS011;38010;53.264;6.592;2023-02-27T07:16:34;0.50;;;0.40;;
51995;SDS011;38010;53.264;6.592;2023-02-27T07:18:59;0.93;;;0.43;;
51995;SDS011;38010;53.264;6.592;2023-02-27T07:21:25;0.38;;;0.30;;
51995;SDS011;38010;53.264;6.592;2023-02-27T07:23:51;0.43;;;0.32;;
51995;SDS011;38010;53.264;6.592;2023-02-27T07:26:16;0.43;;;0.40;;
51995;SDS011;38010;53.264;6.592;2023-02-27T07:28:42;0.93;;;0.40;;
51995;SDS011;38010;53.264;6.592;2023-02-27T07:31:08;0.40;;;0.40;;
51995;SDS011;38010;53.264;6.592;2023-02-27T07:33:34;0.40;;;0.40;;
51995;SDS011;38010;53.264;6.592;2023-02-27T07:35:59;0.60;;;0.40;;
51995;SDS011;38010;53.264;6.592;2023-02-27T07:38:25;0.50;;;0.50;;
51995;SDS011;38010;53.264;6.592;2023-02-27T07:40:53;0.45;;;0.45;;
51995;SDS011;38010;53.264;6.592;2023-02-27T07:43:19;0.45;;;0.40;;
51995;SDS011;38010;53.264;6.592;2023-02-27T07:45:44;0.40;;;0.40;;
51995;SDS011;38010;53.264;6.592;2023-02-27T07:48:10;0.35;;;0.35;;
51995;SDS011;38010;53.264;6.592;2023-02-27T07:50:36;0.75;;;0.40;;
51995;SDS011;38010;53.264;6.592;2023-02-27T07:53:02;0.60;;;0.50;;
51995;SDS011;38010;53.264;6.592;2023-02-27T07:55:29;0.40;;;0.40;;
51995;SDS011;38010;53.264;6.592;2023-02-27T07:57:55;0.32;;;0.32;;
51995;SDS011;38010;53.264;6.592;2023-02-27T08:00:21;0.38;;;0.38;;
51995;SDS011;38010;53.264;6.592;2023-02-27T08:02:46;0.50;;;0.40;;
51995;SDS011;38010;53.264;6.592;2023-02-27T08:05:12;0.77;;;0.40;;
51995;SDS011;38010;53.264;6.592;2023-02-27T08:07:39;0.40;;;0.38;;
51995;SDS011;38010;53.264;6.592;2023-02-27T08:10:04;0.40;;;0.40;;
51995;SDS011;38010;53.264;6.592;2023-02-27T08:12:31;0.32;;;0.32;;
51995;SDS011;38010;53.264;6.592;2023-02-27T08:14:56;0.40;;;0.40;;
51995;SDS011;38010;53.264;6.592;2023-02-27T08:17:22;0.40;;;0.40;;
51995;SDS011;38010;53.264;6.592;2023-02-27T08:19:48;0.50;;;0.50;;
51995;SDS011;38010;53.264;6.592;2023-02-27T08:22:13;0.60;;;0.50;;
51995;SDS011;38010;53.264;6.592;2023-02-27T08:24:39;0.50;;;0.40;;
51995;SDS011;38010;53.264;6.592;2023-02-27T08:27:05;0.40;;;0.32;;
51995;SDS011;38010;53.264;6.592;2023-02-27T08:29:31;1.10;;;0.52;;
51995;SDS011;38010;53.264;6.592;2023-02-27T08:31:58;0.82;;;0.40;;
51995;SDS011;38010;53.264;6.592;2023-02-27T08:34:24;0.40;;;0.40;;
51995;SDS011;38010;53.264;6.592;2023-02-27T08:36:50;0.82;;;0.50;;
51995;SDS011;38010;53.264;6.592;2023-02-27T08:39:16;0.50;;;0.45;;
51995;SDS011;38010;53.264;6.592;2023-02-27T08:41:42;0.75;;;0.50;;
51995;SDS011;38010;53.264;6.592;2023-02-27T08:44:11;0.93;;;0.50;;
51995;SDS011;38010;53.264;6.592;2023-02-27T08:46:37;0.65;;;0.40;;
51995;SDS011;38010;53.264;6.592;2023-02-27T08:49:03;0.40;;;0.40;;
51995;SDS011;38010;53.264;6.592;2023-02-27T08:51:28;0.60;;;0.43;;
51995;SDS011;38010;53.264;6.592;2023-02-27T08:53:54;0.52;;;0.50;;
51995;SDS011;38010;53.264;6.592;2023-02-27T08:56:25;0.50;;;0.45;;
51995;SDS011;38010;53.264;6.592;2023-02-27T08:58:52;0.88;;;0.70;;
51995;SDS011;38010;53.264;6.592;2023-02-27T09:01:18;0.40;;;0.40;;
51995;SDS011;38010;53.264;6.592;2023-02-27T09:03:44;1.05;;;0.55;;
51995;SDS011;38010;53.264;6.592;2023-02-27T09:06:10;0.90;;;0.40;;
51995;SDS011;38010;53.264;6.592;2023-02-27T09:08:37;0.47;;;0.40;;
51995;SDS011;38010;53.264;6.592;2023-02-27T09:11:03;0.60;;;0.40;;
51995;SDS011;38010;53.264;6.592;2023-02-27T09:13:29;0.50;;;0.50;;
51995;SDS011;38010;53.264;6.592;2023-02-27T09:15:55;0.60;;;0.40;;
51995;SDS011;38010;53.264;6.592;2023-02-27T09:18:21;1.15;;;0.45;;
51995;SDS011;38010;53.264;6.592;2023-02-27T09:20:48;1.30;;;0.73;;
51995;SDS011;38010;53.264;6.592;2023-02-27T09:23:15;0.45;;;0.40;;
51995;SDS011;38010;53.264;6.592;2023-02-27T09:25:41;0.50;;;0.50;;
51995;SDS011;38010;53.264;6.592;2023-02-27T09:28:06;1.17;;;0.43;;
51995;SDS011;38010;53.264;6.592;2023-02-27T09:30:32;0.52;;;0.50;;
51995;SDS011;38010;53.264;6.592;2023-02-27T09:32:58;0.43;;;0.43;;
51995;SDS011;38010;53.264;6.592;2023-02-27T09:35:24;0.80;;;0.40;;
51995;SDS011;38010;53.264;6.592;2023-02-27T09:37:50;0.40;;;0.40;;
51995;SDS011;38010;53.264;6.592;2023-02-27T09:40:21;0.40;;;0.40;;
51995;SDS011;38010;53.264;6.592;2023-02-27T09:42:54;0.50;;;0.40;;
51995;SDS011;38010;53.264;6.592;2023-02-27T09:45:25;0.70;;;0.50;;
51995;SDS011;38010;53.264;6.592;2023-02-27T09:47:58;0.50;;;0.40;;
51995;SDS011;38010;53.264;6.592;2023-02-27T09:50:41;0.82;;;0.45;;
51995;SDS011;38010;53.264;6.592;2023-02-27T09:53:25;0.77;;;0.50;;
51995;SDS011;38010;53.264;6.592;2023-02-27T09:55:59;0.80;;;0.50;;
51995;SDS011;38010;53.264;6.592;2023-02-27T10:01:22;1.02;;;0.50;;
51995;SDS011;38010;53.264;6.592;2023-02-27T10:06:35;0.95;;;0.55;;
51995;SDS011;38010;53.264;6.592;2023-02-27T10:09:30;0.65;;;0.50;;
51995;SDS011;38010;53.264;6.592;2023-02-27T10:12:02;0.57;;;0.47;;
51995;SDS011;38010;53.264;6.592;2023-02-27T10:14:37;0.88;;;0.40;;
51995;SDS011;38010;53.264;6.592;2023-02-27T10:19:43;0.45;;;0.40;;
51995;SDS011;38010;53.264;6.592;2023-02-27T10:22:11;0.43;;;0.40;;
51995;SDS011;38010;53.264;6.592;2023-02-27T10:24:46;0.47;;;0.40;;
51995;SDS011;38010;53.264;6.592;2023-02-27T10:27:21;0.60;;;0.40;;
51995;SDS011;38010;53.264;6.592;2023-02-27T10:29:47;1.00;;;0.52;;
51995;SDS011;38010;53.264;6.592;2023-02-27T10:37:29;0.38;;;0.38;;
51995;SDS011;38010;53.264;6.592;2023-02-27T10:39:56;0.38;;;0.30;;
51995;SDS011;38010;53.264;6.592;2023-02-27T10:42:24;0.60;;;0.50;;
51995;SDS011;38010;53.264;6.592;2023-02-27T10:44:55;0.47;;;0.40;;
51995;SDS011;38010;53.264;6.592;2023-02-27T10:47:22;1.58;;;0.40;;
51995;SDS011;38010;53.264;6.592;2023-02-27T10:49:49;1.45;;;0.50;;
51995;SDS011;38010;53.264;6.592;2023-02-27T10:52:15;0.90;;;0.40;;
51995;SDS011;38010;53.264;6.592;2023-02-27T10:54:42;0.40;;;0.40;;
51995;SDS011;38010;53.264;6.592;2023-02-27T10:57:24;0.93;;;0.40;;
51995;SDS011;38010;53.264;6.592;2023-02-27T11:00:01;0.65;;;0.40;;
51995;SDS011;38010;53.264;6.592;2023-02-27T11:02:51;0.40;;;0.40;;
51995;SDS011;38010;53.264;6.592;2023-02-27T11:05:20;0.68;;;0.40;;
51995;SDS011;38010;53.264;6.592;2023-02-27T11:07:55;0.60;;;0.43;;
51995;SDS011;38010;53.264;6.592;2023-02-27T11:10:34;1.80;;;0.45;;
51995;SDS011;38010;53.264;6.592;2023-02-27T11:13:01;0.50;;;0.40;;
51995;SDS011;38010;53.264;6.592;2023-02-27T11:15:33;0.40;;;0.40;;
51995;SDS011;38010;53.264;6.592;2023-02-27T11:18:19;0.85;;;0.45;;
51995;SDS011;38010;53.264;6.592;2023-02-27T11:20:53;0.70;;;0.50;;
51995;SDS011;38010;53.264;6.592;2023-02-27T11:26:22;0.45;;;0.40;;
51995;SDS011;38010;53.264;6.592;2023-02-27T11:34:27;0.40;;;0.40;;
51995;SDS011;38010;53.264;6.592;2023-02-27T11:36:57;0.75;;;0.40;;
51995;SDS011;38010;53.264;6.592;2023-02-27T11:39:34;0.40;;;0.40;;
51995;SDS011;38010;53.264;6.592;2023-02-27T11:44:57;0.40;;;0.40;;
51995;SDS011;38010;53.264;6.592;2023-02-27T11:47:33;0.30;;;0.30;;
51995;SDS011;38010;53.264;6.592;2023-02-27T11:52:53;0.40;;;0.40;;
51995;SDS011;38010;53.264;6.592;2023-02-27T11:55:21;0.55;;;0.40;;
51995;SDS011;38010;53.264;6.592;2023-02-27T11:57:57;0.30;;;0.30;;
51995;SDS011;38010;53.264;6.592;2023-02-27T12:00:38;0.40;;;0.40;;
51995;SDS011;38010;53.264;6.592;2023-02-27T12:05:57;0.57;;;0.40;;
51995;SDS011;38010;53.264;6.592;2023-02-27T12:11:01;0.67;;;0.30;;
51995;SDS011;38010;53.264;6.592;2023-02-27T12:13:31;0.30;;;0.30;;
51995;SDS011;38010;53.264;6.592;2023-02-27T12:18:46;0.70;;;0.40;;
51995;SDS011;38010;53.264;6.592;2023-02-27T12:21:47;0.60;;;0.40;;
51995;SDS011;38010;53.264;6.592;2023-02-27T12:24:27;0.22;;;0.22;;
51995;SDS011;38010;53.264;6.592;2023-02-27T12:27:10;0.77;;;0.40;;
51995;SDS011;38010;53.264;6.592;2023-02-27T12:29:47;0.40;;;0.40;;
51995;SDS011;38010;53.264;6.592;2023-02-27T12:35:43;0.30;;;0.30;;
51995;SDS011;38010;53.264;6.592;2023-02-27T12:38:12;0.60;;;0.40;;
51995;SDS011;38010;53.264;6.592;2023-02-27T12:40:45;0.73;;;0.40;;
51995;SDS011;38010;53.264;6.592;2023-02-27T12:52:11;0.32;;;0.30;;
51995;SDS011;38010;53.264;6.592;2023-02-27T12:54:46;0.32;;;0.30;;
51995;SDS011;38010;53.264;6.592;2023-02-27T12:57:38;0.32;;;0.30;;
51995;SDS011;38010;53.264;6.592;2023-02-27T13:00:27;0.35;;;0.30;;
51995;SDS011;38010;53.264;6.592;2023-02-27T13:03:12;0.40;;;0.30;;
51995;SDS011;38010;53.264;6.592;2023-02-27T13:11:17;0.30;;;0.30;;
51995;SDS011;38010;53.264;6.592;2023-02-27T13:13:48;0.30;;;0.30;;
51995;SDS011;38010;53.264;6.592;2023-02-27T13:16:21;0.95;;;0.30;;
51995;SDS011;38010;53.264;6.592;2023-02-27T13:19:01;0.47;;;0.32;;
51995;SDS011;38010;53.264;6.592;2023-02-27T13:21:35;0.38;;;0.30;;
51995;SDS011;38010;53.264;6.592;2023-02-27T13:26:45;0.30;;;0.30;;
51995;SDS011;38010;53.264;6.592;2023-02-27T13:29:18;0.30;;;0.30;;
51995;SDS011;38010;53.264;6.592;2023-02-27T13:34:59;0.95;;;0.30;;
51995;SDS011;38010;53.264;6.592;2023-02-27T13:40:34;0.30;;;0.30;;
51995;SDS011;38010;53.264;6.592;2023-02-27T13:45:57;0.30;;;0.30;;
51995;SDS011;38010;53.264;6.592;2023-02-27T13:48:35;0.52;;;0.30;;
51995;SDS011;38010;53.264;6.592;2023-02-27T13:51:06;0.68;;;0.30;;
51995;SDS011;38010;53.264;6.592;2023-02-27T13:53:34;0.60;;;0.30;;
51995;SDS011;38010;53.264;6.592;2023-02-27T13:56:18;0.30;;;0.30;;
51995;SDS011;38010;53.264;6.592;2023-02-27T13:58:46;0.30;;;0.30;;
51995;SDS011;38010;53.264;6.592;2023-02-27T14:01:14;0.22;;;0.22;;
51995;SDS011;38010;53.264;6.592;2023-02-27T14:03:54;0.30;;;0.30;;
51995;SDS011;38010;53.264;6.592;2023-02-27T14:06:24;0.38;;;0.30;;
51995;SDS011;38010;53.264;6.592;2023-02-27T14:08:50;0.30;;;0.30;;
51995;SDS011;38010;53.264;6.592;2023-02-27T14:24:24;0.30;;;0.20;;
51995;SDS011;38010;53.264;6.592;2023-02-27T14:26:55;1.08;;;0.38;;
51995;SDS011;38010;53.264;6.592;2023-02-27T14:29:23;0.43;;;0.43;;
51995;SDS011;38010;53.264;6.592;2023-02-27T14:31:55;0.32;;;0.30;;
51995;SDS011;38010;53.264;6.592;2023-02-27T14:34:23;0.30;;;0.30;;
51995;SDS011;38010;53.264;6.592;2023-02-27T14:36:51;0.68;;;0.40;;
51995;SDS011;38010;53.264;6.592;2023-02-27T14:39:41;0.20;;;0.20;;
51995;SDS011;38010;53.264;6.592;2023-02-27T14:44:42;0.20;;;0.20;;
51995;SDS011;38010;53.264;6.592;2023-02-27T14:47:32;0.20;;;0.20;;
51995;SDS011;38010;53.264;6.592;2023-02-27T14:49:58;0.30;;;0.30;;
51995;SDS011;38010;53.264;6.592;2023-02-27T14:52:29;0.30;;;0.20;;
51995;SDS011;38010;53.264;6.592;2023-02-27T15:00:31;0.50;;;0.40;;
51995;SDS011;38010;53.264;6.592;2023-02-27T15:03:08;0.77;;;0.30;;
51995;SDS011;38010;53.264;6.592;2023-02-27T15:05:49;0.30;;;0.30;;
51995;SDS011;38010;53.264;6.592;2023-02-27T15:08:21;0.28;;;0.28;;
51995;SDS011;38010;53.264;6.592;2023-02-27T15:11:06;0.25;;;0.25;;
51995;SDS011;38010;53.264;6.592;2023-02-27T15:13:38;0.40;;;0.32;;
51995;SDS011;38010;53.264;6.592;2023-02-27T15:16:27;0.55;;;0.30;;
51995;SDS011;38010;53.264;6.592;2023-02-27T15:18:58;0.47;;;0.30;;
51995;SDS011;38010;53.264;6.592;2023-02-27T15:21:29;0.43;;;0.20;;
51995;SDS011;38010;53.264;6.592;2023-02-27T15:23:59;0.28;;;0.28;;
51995;SDS011;38010;53.264;6.592;2023-02-27T15:26:26;0.20;;;0.20;;
51995;SDS011;38010;53.264;6.592;2023-02-27T15:28:56;0.30;;;0.30;;
51995;SDS011;38010;53.264;6.592;2023-02-27T15:31:24;0.30;;;0.30;;
51995;SDS011;38010;53.264;6.592;2023-02-27T15:33:53;0.20;;;0.20;;
51995;SDS011;38010;53.264;6.592;2023-02-27T15:36:20;0.82;;;0.32;;
51995;SDS011;38010;53.264;6.592;2023-02-27T15:41:35;0.20;;;0.20;;
51995;SDS011;38010;53.264;6.592;2023-02-27T15:44:02;0.20;;;0.20;;
51995;SDS011;38010;53.264;6.592;2023-02-27T15:46:28;0.30;;;0.30;;
51995;SDS011;38010;53.264;6.592;2023-02-27T15:48:55;0.20;;;0.20;;
51995;SDS011;38010;53.264;6.592;2023-02-27T15:51:21;0.20;;;0.20;;
51995;SDS011;38010;53.264;6.592;2023-02-27T15:53:52;0.20;;;0.20;;
51995;SDS011;38010;53.264;6.592;2023-02-27T15:56:24;0.68;;;0.30;;
51995;SDS011;38010;53.264;6.592;2023-02-27T15:58:55;0.60;;;0.30;;
51995;SDS011;38010;53.264;6.592;2023-02-27T16:01:24;0.30;;;0.30;;
51995;SDS011;38010;53.264;6.592;2023-02-27T16:03:53;0.43;;;0.30;;
51995;SDS011;38010;53.264;6.592;2023-02-27T16:06:24;0.22;;;0.22;;
51995;SDS011;38010;53.264;6.592;2023-02-27T16:08:59;0.20;;;0.20;;
51995;SDS011;38010;53.264;6.592;2023-02-27T16:11:34;0.20;;;0.20;;
51995;SDS011;38010;53.264;6.592;2023-02-27T16:14:01;0.20;;;0.20;;
51995;SDS011;38010;53.264;6.592;2023-02-27T16:16:33;0.30;;;0.30;;
51995;SDS011;38010;53.264;6.592;2023-02-27T16:19:15;0.20;;;0.20;;
51995;SDS011;38010;53.264;6.592;2023-02-27T16:22:24;0.55;;;0.30;;
51995;SDS011;38010;53.264;6.592;2023-02-27T16:24:44;0.30;;;0.30;;
51995;SDS011;38010;53.264;6.592;2023-02-27T16:27:25;0.20;;;0.20;;
51995;SDS011;38010;53.264;6.592;2023-02-27T16:29:54;0.55;;;0.30;;
51995;SDS011;38010;53.264;6.592;2023-02-27T16:32:32;0.30;;;0.30;;
51995;SDS011;38010;53.264;6.592;2023-02-27T16:35:21;0.22;;;0.22;;
51995;SDS011;38010;53.264;6.592;2023-02-27T16:37:48;0.77;;;0.30;;
51995;SDS011;38010;53.264;6.592;2023-02-27T16:40:15;0.30;;;0.30;;
51995;SDS011;38010;53.264;6.592;2023-02-27T16:42:43;0.28;;;0.28;;
51995;SDS011;38010;53.264;6.592;2023-02-27T16:45:13;0.35;;;0.35;;
51995;SDS011;38010;53.264;6.592;2023-02-27T16:47:40;0.20;;;0.20;;
51995;SDS011;38010;53.264;6.592;2023-02-27T16:52:58;0.30;;;0.30;;
51995;SDS011;38010;53.264;6.592;2023-02-27T16:55:25;0.22;;;0.22;;
51995;SDS011;38010;53.264;6.592;2023-02-27T16:57:51;0.30;;;0.30;;
51995;SDS011;38010;53.264;6.592;2023-02-27T17:00:17;0.90;;;0.30;;
51995;SDS011;38010;53.264;6.592;2023-02-27T17:02:44;0.30;;;0.30;;
51995;SDS011;38010;53.264;6.592;2023-02-27T17:05:10;0.30;;;0.30;;
51995;SDS011;38010;53.264;6.592;2023-02-27T17:07:39;0.40;;;0.30;;
51995;SDS011;38010;53.264;6.592;2023-02-27T17:10:05;0.45;;;0.30;;
51995;SDS011;38010;53.264;6.592;2023-02-27T17:12:31;0.20;;;0.20;;
51995;SDS011;38010;53.264;6.592;2023-02-27T17:14:57;0.20;;;0.20;;
51995;SDS011;38010;53.264;6.592;2023-02-27T17:17:23;0.30;;;0.30;;
51995;SDS011;38010;53.264;6.592;2023-02-27T17:19:49;0.30;;;0.30;;
51995;SDS011;38010;53.264;6.592;2023-02-27T17:22:14;0.30;;;0.30;;
51995;SDS011;38010;53.264;6.592;2023-02-27T17:24:40;0.30;;;0.30;;
51995;SDS011;38010;53.264;6.592;2023-02-27T17:27:06;0.20;;;0.20;;
51995;SDS011;38010;53.264;6.592;2023-02-27T17:29:32;0.30;;;0.30;;
51995;SDS011;38010;53.264;6.592;2023-02-27T17:31:58;1.08;;;0.40;;
51995;SDS011;38010;53.264;6.592;2023-02-27T17:34:24;0.30;;;0.30;;
51995;SDS011;38010;53.264;6.592;2023-02-27T17:36:49;0.32;;;0.30;;
51995;SDS011;38010;53.264;6.592;2023-02-27T17:39:17;0.30;;;0.30;;
51995;SDS011;38010;53.264;6.592;2023-02-27T17:41:43;0.70;;;0.30;;
51995;SDS011;38010;53.264;6.592;2023-02-27T17:44:10;0.40;;;0.30;;
51995;SDS011;38010;53.264;6.592;2023-02-27T17:46:36;0.30;;;0.30;;